Time;durP1;ratioP1;P1;durP2;ratioP2;P2;SDS_P1;SDS_P2;PMS_P1;PMS_P2;Temp;Humidity;BMP_temperature;BMP_pressure;BME280_temperature;BME280_humidity;BME280_pressure;Samples;Min_cycle;Max_cycle;Signal;HPM_P1;HPM_P2
2023/05/03 00:01:48;;;;;;;14.07;6.43;;;5.30;99.90;;;;;;5003565;28;20544;-66
2023/05/03 00:04:15;;;;;;;15.95;6.30;;;5.30;99.90;;;;;;5001872;28;20053;-65
2023/05/03 00:06:43;;;;;;;14.35;4.72;;;5.30;99.90;;;;;;5001705;28;20057;-62
2023/05/03 00:09:09;;;;;;;19.88;5.45;;;5.30;99.90;;;;;;4983713;28;20025;-64
2023/05/03 00:11:35;;;;;;;14.55;5.38;;;5.30;99.90;;;;;;5000994;28;20503;-64
2023/05/03 00:14:01;;;;;;;11.50;5.25;;;5.20;99.90;;;;;;5003505;28;20022;-66
2023/05/03 00:16:26;;;;;;;20.27;6.18;;;5.20;99.90;;;;;;5007493;28;20045;-65
2023/05/03 00:18:52;;;;;;;9.05;4.70;;;5.20;99.90;;;;;;5007163;28;20026;-66
2023/05/03 00:21:17;;;;;;;11.52;4.53;;;5.30;99.90;;;;;;5005940;28;20025;-65
2023/05/03 00:23:43;;;;;;;15.07;5.82;;;5.20;99.90;;;;;;5003580;28;20105;-66
2023/05/03 00:26:08;;;;;;;9.63;4.35;;;5.20;99.90;;;;;;5000686;28;20080;-64
2023/05/03 00:28:34;;;;;;;11.02;4.32;;;5.20;99.90;;;;;;4985777;28;20032;-66
2023/05/03 00:31:09;;;;;;;13.35;5.15;;;5.20;99.90;;;;;;4999654;28;20173;-63
2023/05/03 00:33:36;;;;;;;18.25;4.75;;;5.20;99.90;;;;;;5001282;28;20030;-65
2023/05/03 00:36:13;;;;;;;9.90;5.20;;;5.20;99.90;;;;;;5001160;28;20029;-66
2023/05/03 00:38:40;;;;;;;11.82;4.43;;;5.10;99.90;;;;;;4997617;28;20030;-66
2023/05/03 00:41:08;;;;;;;9.05;4.40;;;5.10;99.90;;;;;;5000132;28;20018;-64
2023/05/03 00:43:34;;;;;;;16.50;5.20;;;5.00;99.90;;;;;;5003831;28;20399;-65
2023/05/03 00:46:02;;;;;;;15.35;5.45;;;5.10;99.90;;;;;;5001157;28;20104;-65
2023/05/03 00:48:28;;;;;;;14.60;4.85;;;5.10;99.90;;;;;;5002323;28;20038;-64
2023/05/03 00:50:57;;;;;;;14.48;4.47;;;5.10;99.90;;;;;;5004017;28;20069;-66
2023/05/03 00:53:22;;;;;;;15.50;5.00;;;5.10;99.90;;;;;;4996190;28;20119;-65
2023/05/03 00:55:52;;;;;;;8.90;4.22;;;5.20;99.90;;;;;;5004291;28;20034;-65
2023/05/03 00:58:17;;;;;;;8.73;4.43;;;5.10;99.90;;;;;;5005852;28;20034;-66
2023/05/03 01:00:43;;;;;;;11.75;3.83;;;5.10;99.90;;;;;;4990944;28;20559;-62
2023/05/03 01:03:09;;;;;;;6.30;4.25;;;5.10;99.90;;;;;;5004484;28;20022;-66
2023/05/03 01:06:18;;;;;;;10.18;4.53;;;5.20;99.90;;;;;;4997156;28;20022;-67
2023/05/03 01:08:51;;;;;;;14.32;5.18;;;5.20;99.90;;;;;;4960853;28;20085;-65
2023/05/03 01:11:21;;;;;;;11.32;4.97;;;5.10;99.90;;;;;;5004702;28;20084;-66
2023/05/03 01:13:59;;;;;;;9.52;4.28;;;5.10;99.90;;;;;;5005400;28;20026;-65
2023/05/03 01:17:20;;;;;;;10.05;4.10;;;5.20;99.90;;;;;;5003288;28;20038;-65
2023/05/03 01:19:55;;;;;;;9.02;3.75;;;5.20;99.90;;;;;;5002071;28;20062;-65
2023/05/03 01:22:37;;;;;;;8.98;4.18;;;5.20;99.90;;;;;;4996117;28;20018;-66
2023/05/03 01:25:08;;;;;;;9.63;3.72;;;5.20;99.90;;;;;;5000019;28;20429;-65
2023/05/03 01:27:34;;;;;;;10.82;4.80;;;5.10;99.90;;;;;;5001431;28;20037;-63
2023/05/03 01:30:02;;;;;;;8.43;4.53;;;5.00;99.90;;;;;;5000533;28;20096;-65
2023/05/03 01:32:36;;;;;;;10.57;4.72;;;4.90;99.90;;;;;;5000430;28;20045;-66
2023/05/03 01:35:14;;;;;;;12.73;4.80;;;4.80;99.90;;;;;;4999590;28;20538;-65
2023/05/03 01:37:41;;;;;;;13.90;4.32;;;4.70;99.90;;;;;;5002299;28;20940;-66
2023/05/03 01:40:10;;;;;;;9.80;5.60;;;4.50;99.90;;;;;;5002419;28;20788;-66
2023/05/03 01:42:37;;;;;;;13.27;6.20;;;4.40;99.90;;;;;;5003981;28;20054;-67
2023/05/03 01:45:06;;;;;;;10.85;5.40;;;4.30;99.90;;;;;;5002605;28;20164;-66
2023/05/03 01:47:32;;;;;;;12.02;5.90;;;4.20;99.90;;;;;;5003668;28;20044;-65
2023/05/03 01:49:58;;;;;;;12.18;5.07;;;4.20;99.90;;;;;;5005704;28;20030;-67
2023/05/03 01:52:23;;;;;;;19.02;6.47;;;4.10;99.90;;;;;;5004962;28;20037;-65
2023/05/03 01:54:49;;;;;;;11.80;5.22;;;4.10;99.90;;;;;;5005774;28;20042;-62
2023/05/03 01:57:14;;;;;;;12.25;4.95;;;4.10;99.90;;;;;;5005971;28;20029;-67
2023/05/03 01:59:40;;;;;;;13.48;5.15;;;4.10;99.90;;;;;;4987459;28;20050;-65
2023/05/03 02:02:06;;;;;;;11.27;5.30;;;4.10;99.90;;;;;;5005009;28;20369;-68
2023/05/03 02:04:31;;;;;;;9.02;4.57;;;4.10;99.90;;;;;;5006063;28;20033;-65
2023/05/03 02:06:57;;;;;;;9.63;4.82;;;4.00;99.90;;;;;;5003840;28;20029;-66
2023/05/03 02:09:24;;;;;;;16.08;5.47;;;4.10;99.90;;;;;;5008190;28;20033;-66
2023/05/03 02:11:49;;;;;;;11.75;5.82;;;4.10;99.90;;;;;;5007971;28;20041;-65
2023/05/03 02:14:15;;;;;;;10.90;4.90;;;4.10;99.90;;;;;;5005769;28;20018;-64
2023/05/03 02:16:41;;;;;;;15.50;5.80;;;4.10;99.90;;;;;;5006523;28;20595;-66
2023/05/03 02:19:07;;;;;;;14.02;4.60;;;4.00;99.90;;;;;;5010101;28;20085;-66
2023/05/03 02:21:34;;;;;;;18.02;7.13;;;4.00;99.90;;;;;;5008275;28;20059;-67
2023/05/03 02:24:00;;;;;;;12.35;5.47;;;3.90;99.90;;;;;;4987878;28;20072;-66
2023/05/03 02:26:26;;;;;;;10.55;5.82;;;3.90;99.90;;;;;;5009000;28;20498;-66
2023/05/03 02:28:51;;;;;;;8.75;5.20;;;3.90;99.90;;;;;;5005908;28;20030;-66
2023/05/03 02:31:17;;;;;;;10.95;5.10;;;3.90;99.90;;;;;;5005491;28;20017;-66
2023/05/03 02:33:42;;;;;;;11.73;5.53;;;3.90;99.90;;;;;;5041388;23;20041;-64
2023/05/03 02:36:08;;;;;;;12.07;4.88;;;3.90;99.90;;;;;;5022176;28;20436;-65
2023/05/03 02:38:34;;;;;;;16.90;6.05;;;3.90;99.90;;;;;;5022475;28;20452;-64
2023/05/03 02:40:59;;;;;;;15.32;6.35;;;3.90;99.90;;;;;;5018651;28;20045;-64
2023/05/03 02:43:25;;;;;;;11.75;5.28;;;3.90;99.90;;;;;;5033875;28;20504;-65
2023/05/03 02:45:51;;;;;;;11.07;4.78;;;3.90;99.90;;;;;;5040219;28;20414;-65
2023/05/03 02:48:16;;;;;;;13.50;5.07;;;4.00;99.90;;;;;;5038169;28;20052;-65
2023/05/03 02:50:42;;;;;;;8.38;4.63;;;4.00;99.90;;;;;;5042251;28;20514;-66
2023/05/03 02:53:07;;;;;;;7.63;4.50;;;4.00;99.90;;;;;;5040501;28;20033;-65
2023/05/03 02:55:33;;;;;;;13.73;6.25;;;4.00;99.90;;;;;;5041868;28;20048;-65
2023/05/03 02:57:59;;;;;;;16.73;5.35;;;4.00;99.90;;;;;;5038912;28;20032;-64
2023/05/03 03:00:25;;;;;;;15.90;5.25;;;4.00;99.90;;;;;;5019891;28;20049;-65
2023/05/03 03:02:51;;;;;;;9.88;5.28;;;3.90;99.90;;;;;;5047271;28;20043;-65
2023/05/03 03:05:16;;;;;;;13.48;5.75;;;3.80;99.90;;;;;;5044166;28;20032;-65
2023/05/03 03:07:42;;;;;;;12.65;6.13;;;3.70;99.90;;;;;;5045477;28;21053;-66
2023/05/03 03:10:08;;;;;;;12.15;6.10;;;3.60;99.90;;;;;;5047644;28;20482;-65
2023/05/03 03:12:37;;;;;;;13.57;5.20;;;3.50;99.90;;;;;;5040022;28;20082;-64
2023/05/03 03:15:03;;;;;;;11.25;5.80;;;3.40;99.90;;;;;;5044746;28;20042;-65
2023/05/03 03:17:30;;;;;;;14.55;6.65;;;3.40;99.90;;;;;;5042184;28;20758;-65
2023/05/03 03:19:57;;;;;;;12.10;6.22;;;3.30;99.90;;;;;;5042783;28;20044;-66
2023/05/03 03:22:24;;;;;;;18.20;6.38;;;3.30;99.90;;;;;;5041536;28;20032;-65
2023/05/03 03:24:50;;;;;;;15.63;5.35;;;3.20;99.90;;;;;;5046819;28;20690;-65
2023/05/03 03:27:15;;;;;;;13.15;6.43;;;3.20;99.90;;;;;;5045421;28;20057;-65
2023/05/03 03:29:41;;;;;;;11.07;6.13;;;3.20;99.90;;;;;;5041831;28;20076;-64
2023/05/03 03:32:06;;;;;;;11.23;5.72;;;3.30;99.90;;;;;;5041297;28;20033;-65
2023/05/03 03:34:32;;;;;;;16.52;6.28;;;3.30;99.90;;;;;;5037074;28;20029;-64
2023/05/03 03:36:57;;;;;;;14.98;5.88;;;3.30;99.90;;;;;;5041503;28;20510;-64
2023/05/03 03:39:23;;;;;;;10.68;5.53;;;3.30;99.90;;;;;;5039633;28;20036;-64
2023/05/03 03:41:49;;;;;;;13.05;5.63;;;3.30;99.90;;;;;;5040985;28;20143;-64
2023/05/03 03:44:14;;;;;;;15.38;6.10;;;3.30;99.90;;;;;;5039744;28;20072;-65
2023/05/03 03:46:40;;;;;;;14.90;6.03;;;3.30;99.90;;;;;;5021060;28;20473;-64
2023/05/03 03:49:06;;;;;;;11.40;5.75;;;3.30;99.90;;;;;;5049119;28;20048;-64
2023/05/03 03:51:32;;;;;;;9.77;5.55;;;3.30;99.90;;;;;;5041063;28;20103;-66
2023/05/03 03:53:58;;;;;;;15.10;5.95;;;3.20;99.90;;;;;;5038093;28;20119;-63
2023/05/03 03:56:24;;;;;;;17.60;6.10;;;3.20;99.90;;;;;;5042893;28;20125;-64
2023/05/03 03:58:49;;;;;;;18.27;6.00;;;3.20;99.90;;;;;;5042374;28;20029;-64
2023/05/03 04:01:15;;;;;;;21.40;6.38;;;3.10;99.90;;;;;;5024510;28;20049;-65
2023/05/03 04:03:43;;;;;;;12.23;6.43;;;3.10;99.90;;;;;;5038923;28;20041;-65
2023/05/03 04:06:09;;;;;;;12.32;5.75;;;3.10;99.90;;;;;;5042822;28;20029;-65
2023/05/03 04:08:35;;;;;;;10.73;6.07;;;3.00;99.90;;;;;;5040822;28;20040;-65
2023/05/03 04:11:01;;;;;;;10.27;5.50;;;3.00;99.90;;;;;;5044033;28;20021;-64
2023/05/03 04:13:27;;;;;;;20.30;8.52;;;3.00;99.90;;;;;;5044817;28;20474;-64
2023/05/03 04:15:55;;;;;;;14.70;6.43;;;2.90;99.90;;;;;;5041467;28;20040;-66
2023/05/03 04:18:21;;;;;;;16.10;7.38;;;2.80;99.90;;;;;;5041566;28;20120;-64
2023/05/03 04:20:48;;;;;;;17.15;6.75;;;2.80;99.90;;;;;;5042793;28;20033;-65
2023/05/03 04:23:13;;;;;;;16.77;6.25;;;2.80;99.90;;;;;;5041448;28;20029;-65
2023/05/03 04:25:47;;;;;;;17.50;6.75;;;2.80;99.90;;;;;;5040807;28;20045;-64
2023/05/03 04:28:13;;;;;;;17.55;7.30;;;2.80;99.90;;;;;;5043664;28;20050;-65
2023/05/03 04:30:38;;;;;;;11.25;6.57;;;2.80;99.90;;;;;;5040686;28;20518;-65
2023/05/03 04:33:04;;;;;;;14.07;6.55;;;2.80;99.90;;;;;;5041403;28;20096;-65
2023/05/03 04:35:29;;;;;;;9.82;5.78;;;2.90;99.90;;;;;;5039318;28;20465;-64
2023/05/03 04:37:55;;;;;;;16.35;6.55;;;2.90;99.90;;;;;;5037396;28;20093;-64
2023/05/03 04:40:21;;;;;;;13.00;6.30;;;2.90;99.90;;;;;;5038809;28;20063;-65
2023/05/03 04:42:47;;;;;;;17.65;7.13;;;3.00;99.90;;;;;;5041750;28;20108;-65
2023/05/03 04:45:13;;;;;;;12.35;6.60;;;3.10;99.90;;;;;;5035749;28;20086;-65
2023/05/03 04:47:39;;;;;;;15.27;6.07;;;3.10;99.90;;;;;;5035770;28;20017;-65
2023/05/03 04:50:06;;;;;;;18.13;6.10;;;3.10;99.90;;;;;;5041106;28;20025;-64
2023/05/03 04:52:33;;;;;;;12.02;6.22;;;3.10;99.90;;;;;;5039148;28;20056;-63
2023/05/03 04:54:59;;;;;;;16.33;6.20;;;3.20;99.90;;;;;;5046515;28;20021;-65
2023/05/03 04:57:24;;;;;;;9.57;5.25;;;3.20;99.90;;;;;;5044806;28;20021;-65
2023/05/03 04:59:52;;;;;;;15.88;7.93;;;3.30;99.90;;;;;;5041166;28;20143;-64
2023/05/03 05:02:18;;;;;;;13.18;5.68;;;3.70;99.90;;;;;;5003330;28;20049;-65
2023/05/03 05:04:44;;;;;;;10.00;4.88;;;4.90;99.90;;;;;;5041830;28;20036;-66
2023/05/03 05:07:11;;;;;;;13.20;4.80;;;6.20;99.90;;;;;;5017786;28;20056;-64
2023/05/03 05:09:36;;;;;;;9.75;4.25;;;7.50;99.90;;;;;;5037959;28;20059;-65
2023/05/03 05:12:02;;;;;;;10.75;4.28;;;8.60;99.90;;;;;;5047174;28;20393;-65
2023/05/03 05:14:30;;;;;;;7.28;3.67;;;9.50;99.90;;;;;;5052979;28;20018;-63
2023/05/03 05:16:56;;;;;;;9.70;4.32;;;10.50;99.90;;;;;;5053592;28;20041;-63
2023/05/03 05:19:21;;;;;;;9.23;4.32;;;11.50;98.30;;;;;;5034942;28;20036;-62
2023/05/03 05:21:47;;;;;;;7.20;3.88;;;12.30;98.30;;;;;;5051079;28;20108;-63
2023/05/03 05:24:13;;;;;;;5.13;3.17;;;13.30;95.00;;;;;;5051522;28;20027;-64
2023/05/03 05:26:38;;;;;;;9.32;4.72;;;13.60;94.90;;;;;;5048077;28;20394;-63
2023/05/03 05:29:04;;;;;;;6.55;4.25;;;14.50;93.30;;;;;;5050012;28;20057;-63
2023/05/03 05:31:30;;;;;;;9.85;4.30;;;14.90;92.50;;;;;;5050609;28;20017;-64
2023/05/03 05:33:56;;;;;;;9.00;4.32;;;15.40;91.70;;;;;;5050001;28;20017;-63
2023/05/03 05:36:21;;;;;;;6.65;3.97;;;15.20;92.00;;;;;;5049838;28;20029;-64
2023/05/03 05:38:47;;;;;;;8.40;3.63;;;15.30;92.20;;;;;;5046588;28;20033;-63
2023/05/03 05:41:12;;;;;;;5.50;3.63;;;16.30;90.00;;;;;;5044835;28;20029;-63
2023/05/03 05:43:38;;;;;;;6.97;3.45;;;16.70;88.50;;;;;;5050286;28;20025;-63
2023/05/03 05:46:03;;;;;;;12.07;3.35;;;17.10;87.10;;;;;;5047506;28;20026;-63
2023/05/03 05:48:29;;;;;;;6.43;3.20;;;17.20;86.50;;;;;;5051626;28;20103;-63
2023/05/03 05:50:55;;;;;;;10.77;3.10;;;17.70;83.90;;;;;;5044138;28;20096;-64
2023/05/03 05:53:20;;;;;;;9.90;3.35;;;17.40;83.90;;;;;;5044508;28;20025;-63
2023/05/03 05:55:46;;;;;;;6.85;3.60;;;17.20;82.90;;;;;;5049896;28;20039;-63
2023/05/03 05:58:12;;;;;;;5.45;3.70;;;17.10;83.70;;;;;;5047301;28;20032;-63
2023/05/03 06:00:38;;;;;;;5.30;3.45;;;17.10;83.20;;;;;;5046865;28;20037;-63
2023/05/03 06:03:04;;;;;;;7.30;3.30;;;17.00;83.90;;;;;;5027241;28;20066;-63
2023/05/03 06:05:30;;;;;;;8.25;3.47;;;17.10;83.50;;;;;;5050834;28;20048;-63
2023/05/03 06:07:55;;;;;;;8.80;3.20;;;17.10;84.10;;;;;;5044240;28;20033;-64
2023/05/03 06:10:21;;;;;;;6.68;3.20;;;17.60;81.90;;;;;;5046010;28;20034;-63
2023/05/03 06:12:47;;;;;;;7.05;2.88;;;17.70;81.70;;;;;;5047911;28;20028;-63
2023/05/03 06:15:13;;;;;;;9.23;3.53;;;17.90;80.00;;;;;;5042200;28;20048;-63
2023/05/03 06:17:38;;;;;;;11.30;2.95;;;17.00;82.50;;;;;;5048681;28;20056;-63
2023/05/03 06:20:05;;;;;;;10.43;3.13;;;17.50;82.40;;;;;;5052053;28;20029;-64
2023/05/03 06:22:30;;;;;;;13.52;2.97;;;17.60;82.40;;;;;;5051468;28;20052;-64
2023/05/03 06:24:57;;;;;;;8.40;3.00;;;18.00;82.50;;;;;;5046439;28;20075;-64
2023/05/03 06:27:23;;;;;;;5.63;2.70;;;19.40;78.10;;;;;;5048915;28;20086;-63
2023/05/03 06:29:49;;;;;;;4.60;3.15;;;19.90;74.90;;;;;;5040546;28;20576;-63
2023/05/03 06:32:15;;;;;;;5.82;2.60;;;20.00;74.20;;;;;;5048158;28;20120;-64
2023/05/03 06:34:40;;;;;;;4.85;2.58;;;19.90;74.50;;;;;;5048883;28;20450;-63
2023/05/03 06:37:06;;;;;;;7.57;2.78;;;19.40;75.80;;;;;;5050785;28;20029;-64
2023/05/03 06:39:31;;;;;;;6.20;3.17;;;19.70;76.60;;;;;;5044213;28;20109;-64
2023/05/03 06:41:57;;;;;;;6.18;2.90;;;20.20;73.20;;;;;;5040579;28;20051;-62
2023/05/03 06:44:23;;;;;;;5.47;2.95;;;20.20;74.20;;;;;;5029265;28;20083;-64
2023/05/03 06:46:50;;;;;;;4.53;2.35;;;20.70;72.80;;;;;;5046585;28;20566;-63
2023/05/03 06:49:15;;;;;;;5.95;2.58;;;21.30;71.00;;;;;;5044883;28;20063;-64
2023/05/03 06:51:41;;;;;;;3.40;2.35;;;21.30;70.10;;;;;;5045285;28;20060;-64
2023/05/03 06:54:08;;;;;;;5.88;2.85;;;21.40;70.20;;;;;;5044613;28;20047;-64
2023/05/03 06:56:34;;;;;;;5.07;2.70;;;21.80;68.20;;;;;;5045481;28;20455;-64
2023/05/03 06:59:01;;;;;;;6.43;3.28;;;21.10;68.00;;;;;;5044563;28;20031;-63
2023/05/03 07:01:27;;;;;;;7.43;3.13;;;20.00;72.50;;;;;;5026925;28;20033;-64
2023/05/03 07:03:52;;;;;;;4.18;2.30;;;20.90;69.30;;;;;;5043626;28;20044;-63
2023/05/03 07:06:18;;;;;;;5.72;2.75;;;20.30;70.00;;;;;;5027107;28;20025;-64
2023/05/03 07:08:44;;;;;;;4.30;2.15;;;20.30;71.70;;;;;;5040638;28;20137;-63
2023/05/03 07:11:10;;;;;;;7.38;2.67;;;21.40;70.30;;;;;;5038608;28;20482;-63
2023/05/03 07:13:35;;;;;;;9.57;3.08;;;21.70;67.30;;;;;;5043850;28;20114;-63
2023/05/03 07:16:01;;;;;;;4.20;2.35;;;21.50;65.60;;;;;;5047788;28;20029;-64
2023/05/03 07:18:26;;;;;;;6.10;3.22;;;22.20;66.40;;;;;;5046771;28;20029;-64
2023/05/03 07:20:52;;;;;;;6.53;2.35;;;22.40;64.50;;;;;;5041680;28;20028;-63
2023/05/03 07:23:18;;;;;;;5.43;2.22;;;22.50;64.00;;;;;;5048068;28;21165;-64
2023/05/03 07:25:44;;;;;;;4.85;2.47;;;22.80;63.90;;;;;;5045943;28;20446;-64
2023/05/03 07:28:10;;;;;;;7.60;3.15;;;22.40;64.70;;;;;;5044432;28;20032;-64
2023/05/03 07:30:36;;;;;;;6.68;2.90;;;21.90;62.80;;;;;;5043105;28;20568;-63
2023/05/03 07:33:02;;;;;;;4.43;2.50;;;21.20;64.70;;;;;;5041065;28;20024;-65
2023/05/03 07:35:28;;;;;;;3.47;2.22;;;22.10;63.80;;;;;;5045391;28;20032;-64
2023/05/03 07:37:53;;;;;;;6.68;2.40;;;22.90;62.90;;;;;;5044266;28;20037;-64
2023/05/03 07:40:19;;;;;;;6.68;2.40;;;22.60;63.00;;;;;;5046349;28;20024;-65
2023/05/03 07:42:45;;;;;;;5.10;2.65;;;22.40;61.90;;;;;;5038520;28;20057;-64
2023/05/03 07:45:11;;;;;;;4.85;2.28;;;22.00;64.50;;;;;;5036958;28;20037;-64
2023/05/03 07:47:38;;;;;;;4.15;2.30;;;22.80;63.00;;;;;;5023254;28;20029;-63
2023/05/03 07:50:05;;;;;;;7.10;2.65;;;22.20;62.80;;;;;;5036771;28;20102;-64
2023/05/03 07:52:42;;;;;;;6.13;2.38;;;22.30;64.50;;;;;;5042535;28;20116;-64
2023/05/03 07:55:08;;;;;;;4.78;2.10;;;23.30;60.30;;;;;;5045464;28;20123;-63
2023/05/03 07:57:33;;;;;;;3.25;2.00;;;23.10;60.10;;;;;;5043658;28;20526;-64
2023/05/03 07:59:59;;;;;;;5.30;1.92;;;22.30;60.20;;;;;;5038685;28;20036;-64
2023/05/03 08:02:25;;;;;;;4.47;2.30;;;22.40;61.50;;;;;;5020119;28;20032;-64
2023/05/03 08:04:50;;;;;;;2.65;1.80;;;22.70;62.00;;;;;;5026955;28;20502;-64
2023/05/03 08:07:16;;;;;;;6.40;2.75;;;22.70;60.80;;;;;;5039816;28;20021;-64
2023/05/03 08:09:42;;;;;;;8.15;2.80;;;24.00;57.80;;;;;;5042189;28;20151;-64
2023/05/03 08:12:08;;;;;;;5.90;2.47;;;23.00;58.90;;;;;;5043257;28;20024;-64
2023/05/03 08:14:33;;;;;;;4.75;2.30;;;22.00;59.30;;;;;;5041894;28;20033;-64
2023/05/03 08:17:00;;;;;;;4.88;2.35;;;22.50;61.10;;;;;;5039377;28;20387;-65
2023/05/03 08:19:25;;;;;;;7.45;2.15;;;22.40;58.60;;;;;;5032346;28;20421;-65
2023/05/03 08:21:53;;;;;;;5.30;2.60;;;22.60;60.40;;;;;;5019602;28;20017;-65
2023/05/03 08:24:19;;;;;;;3.00;2.15;;;22.10;59.10;;;;;;5036187;28;20021;-65
2023/05/03 08:26:47;;;;;;;4.85;2.78;;;23.20;60.30;;;;;;5040675;28;20025;-65
2023/05/03 08:29:13;;;;;;;8.57;2.58;;;22.80;59.10;;;;;;5040675;28;20095;-64
2023/05/03 08:31:39;;;;;;;6.57;2.47;;;22.50;57.50;;;;;;5042843;28;20098;-65
2023/05/03 08:34:06;;;;;;;3.83;2.25;;;22.80;58.10;;;;;;5043178;28;21668;-63
2023/05/03 08:36:33;;;;;;;5.63;1.88;;;22.50;59.50;;;;;;5046914;28;20017;-64
2023/05/03 08:38:58;;;;;;;3.97;2.13;;;23.40;60.10;;;;;;5041943;28;20025;-65
2023/05/03 08:41:29;;;;;;;6.78;2.40;;;23.50;58.20;;;;;;5026665;28;20032;-64
2023/05/03 08:43:55;;;;;;;8.98;3.65;;;22.40;57.60;;;;;;5023073;28;20454;-64
2023/05/03 08:46:21;;;;;;;4.43;2.40;;;22.60;60.40;;;;;;5042048;28;20021;-65
2023/05/03 08:48:48;;;;;;;4.93;2.47;;;23.20;57.50;;;;;;5040573;28;20027;-64
2023/05/03 08:51:16;;;;;;;7.32;3.35;;;22.80;58.60;;;;;;5041430;28;20478;-64
2023/05/03 08:53:42;;;;;;;5.82;2.20;;;22.70;58.30;;;;;;5035119;28;20133;-63
2023/05/03 08:56:15;;;;;;;5.80;2.47;;;23.10;58.50;;;;;;5044232;28;20033;-63
2023/05/03 08:58:41;;;;;;;6.90;2.92;;;22.50;56.60;;;;;;5038485;28;20029;-63
2023/05/03 09:01:08;;;;;;;7.47;2.42;;;22.20;59.10;;;;;;5039983;28;20091;-64
2023/05/03 09:03:35;;;;;;;6.55;2.45;;;22.30;58.70;;;;;;5041542;28;20580;-64
2023/05/03 09:06:01;;;;;;;3.78;2.03;;;22.60;62.80;;;;;;5006359;28;20040;-64
2023/05/03 09:08:41;;;;;;;5.78;2.00;;;22.00;57.30;;;;;;5043467;28;20076;-63
2023/05/03 09:11:26;;;;;;;4.15;2.22;;;22.40;58.20;;;;;;5040849;28;20025;-65
2023/05/03 09:13:52;;;;;;;7.60;2.45;;;22.30;57.20;;;;;;5039484;28;20509;-65
2023/05/03 09:16:28;;;;;;;5.63;2.40;;;22.60;58.60;;;;;;5037468;28;20419;-65
2023/05/03 09:19:08;;;;;;;5.70;2.38;;;22.80;60.00;;;;;;5041125;28;20021;-64
2023/05/03 09:21:40;;;;;;;4.10;2.13;;;22.80;57.80;;;;;;5038201;28;20641;-64
2023/05/03 09:24:17;;;;;;;4.68;2.28;;;22.70;58.70;;;;;;5036723;28;20021;-64
2023/05/03 09:26:45;;;;;;;5.00;2.50;;;23.30;57.10;;;;;;5038749;28;20025;-64
2023/05/03 09:29:29;;;;;;;5.30;2.67;;;23.20;57.20;;;;;;5041223;28;20017;-64
2023/05/03 09:32:07;;;;;;;4.15;2.55;;;21.70;57.00;;;;;;5039890;28;20017;-65
2023/05/03 09:34:34;;;;;;;5.20;2.45;;;22.20;56.80;;;;;;5043581;28;20114;-65
2023/05/03 09:37:00;;;;;;;5.85;2.42;;;22.10;55.70;;;;;;5036722;28;20052;-64
2023/05/03 09:39:26;;;;;;;5.10;2.00;;;21.80;56.90;;;;;;5038001;28;20063;-65
2023/05/03 09:41:51;;;;;;;10.30;3.10;;;21.70;57.50;;;;;;5038915;28;20113;-64
2023/05/03 09:44:17;;;;;;;4.18;2.28;;;20.90;58.70;;;;;;5038940;28;20471;-64
2023/05/03 09:47:05;;;;;;;9.90;2.47;;;21.20;58.20;;;;;;5045089;28;20482;-65
2023/05/03 09:49:37;;;;;;;3.53;2.08;;;20.90;59.70;;;;;;5042318;28;20021;-65
2023/05/03 09:52:03;;;;;;;5.90;2.10;;;20.70;59.00;;;;;;5042461;28;20013;-64
2023/05/03 09:54:30;;;;;;;3.35;2.10;;;21.40;59.20;;;;;;5043302;28;20020;-64
2023/05/03 09:56:56;;;;;;;7.32;3.22;;;21.50;59.20;;;;;;5045970;28;20107;-64
2023/05/03 09:59:22;;;;;;;4.05;1.90;;;21.20;57.40;;;;;;5046353;28;20043;-63
2023/05/03 10:01:51;;;;;;;4.05;2.35;;;21.10;58.10;;;;;;5049933;28;20021;-63
2023/05/03 10:04:18;;;;;;;3.38;1.95;;;20.30;59.80;;;;;;5031003;28;20053;-64
2023/05/03 10:06:48;;;;;;;7.43;2.72;;;19.80;58.80;;;;;;5043989;28;20044;-63
2023/05/03 10:09:19;;;;;;;4.97;3.15;;;19.00;62.40;;;;;;5045490;28;20044;-63
2023/05/03 10:11:51;;;;;;;8.02;2.75;;;18.40;63.60;;;;;;5041975;28;20029;-63
2023/05/03 10:14:17;;;;;;;6.13;3.35;;;18.30;64.20;;;;;;5048713;28;20025;-63
2023/05/03 10:16:47;;;;;;;6.75;2.78;;;18.50;66.40;;;;;;5049732;28;20033;-64
2023/05/03 10:19:18;;;;;;;4.43;2.97;;;18.40;64.60;;;;;;5047050;28;20036;-64
2023/05/03 10:22:04;;;;;;;5.95;2.85;;;18.30;65.00;;;;;;5048853;28;20029;-64
2023/05/03 10:24:34;;;;;;;4.57;2.65;;;18.40;66.10;;;;;;5048425;28;20035;-63
2023/05/03 10:27:00;;;;;;;4.88;3.05;;;18.60;66.90;;;;;;5048901;28;20591;-64
2023/05/03 10:29:36;;;;;;;3.38;2.20;;;18.80;64.50;;;;;;5025771;28;20025;-64
2023/05/03 10:32:02;;;;;;;4.15;2.00;;;18.60;64.20;;;;;;5050253;28;20070;-64
2023/05/03 10:34:38;;;;;;;5.97;2.55;;;18.40;66.00;;;;;;5050486;28;20032;-64
2023/05/03 10:37:14;;;;;;;5.68;2.10;;;18.40;61.50;;;;;;5045401;28;20025;-64
2023/05/03 10:39:51;;;;;;;3.33;1.90;;;18.40;63.20;;;;;;5046703;28;20033;-63
2023/05/03 10:42:22;;;;;;;5.55;2.67;;;18.40;64.20;;;;;;5043692;28;20017;-64
2023/05/03 10:44:51;;;;;;;5.65;3.70;;;18.20;62.70;;;;;;5022116;28;20112;-63
2023/05/03 10:47:21;;;;;;;4.57;3.15;;;17.90;62.20;;;;;;5046963;28;20029;-64
2023/05/03 10:49:46;;;;;;;6.40;2.50;;;17.70;63.40;;;;;;5044829;28;20036;-64
2023/05/03 10:52:36;;;;;;;4.85;2.63;;;17.60;63.30;;;;;;5048280;28;20015;-65
2023/05/03 10:55:11;;;;;;;5.22;2.50;;;17.60;64.90;;;;;;5032696;28;20732;-64
2023/05/03 10:57:38;;;;;;;10.52;2.15;;;17.70;66.60;;;;;;5049800;28;20048;-64
2023/05/03 11:00:11;;;;;;;9.38;2.10;;;17.80;65.00;;;;;;5048379;28;20425;-63
2023/05/03 11:02:47;;;;;;;3.28;2.28;;;18.10;67.10;;;;;;5045444;28;20095;-64
2023/05/03 11:05:16;;;;;;;7.00;2.80;;;18.10;65.40;;;;;;5025655;28;20080;-64
2023/05/03 11:07:41;;;;;;;5.28;2.92;;;18.20;66.10;;;;;;5044314;28;20028;-64
2023/05/03 11:10:17;;;;;;;2.95;2.00;;;18.20;65.80;;;;;;5047737;28;20513;-64
2023/05/03 11:12:43;;;;;;;3.72;2.25;;;17.90;64.80;;;;;;5045999;28;20020;-64
2023/05/03 11:15:11;;;;;;;5.13;2.22;;;18.00;65.50;;;;;;5044827;28;20460;-64
2023/05/03 11:17:37;;;;;;;3.65;1.92;;;18.10;66.30;;;;;;5042834;28;20112;-63
2023/05/03 11:20:07;;;;;;;6.72;2.58;;;18.00;65.80;;;;;;5044610;28;20025;-64
2023/05/03 11:22:33;;;;;;;5.95;2.40;;;17.60;64.60;;;;;;5041240;28;20028;-63
2023/05/03 11:24:59;;;;;;;7.68;3.17;;;17.40;65.00;;;;;;5047297;28;20029;-63
2023/05/03 11:27:25;;;;;;;6.28;2.55;;;17.20;65.70;;;;;;5025420;28;20017;-63
2023/05/03 11:29:51;;;;;;;5.65;2.40;;;17.30;68.30;;;;;;5007614;28;20119;-64
2023/05/03 11:32:17;;;;;;;7.30;2.38;;;17.50;69.20;;;;;;5045860;28;20083;-63
2023/05/03 11:34:45;;;;;;;9.55;2.80;;;17.50;65.40;;;;;;5026233;28;20032;-63
2023/05/03 11:37:10;;;;;;;4.47;2.30;;;17.20;66.10;;;;;;5041388;28;20064;-63
2023/05/03 11:39:36;;;;;;;6.47;2.72;;;17.20;66.20;;;;;;5042261;28;20071;-63
2023/05/03 11:42:05;;;;;;;6.05;2.13;;;17.20;65.60;;;;;;5046767;28;20017;-63
2023/05/03 11:44:30;;;;;;;3.85;2.00;;;17.40;65.20;;;;;;5045188;28;20133;-63
2023/05/03 11:46:56;;;;;;;7.43;2.08;;;17.10;65.00;;;;;;5041462;28;20465;-64
2023/05/03 11:49:23;;;;;;;3.60;2.17;;;17.10;65.40;;;;;;5041836;28;20387;-63
2023/05/03 11:51:51;;;;;;;5.38;2.30;;;17.20;65.10;;;;;;5042591;28;20032;-64
2023/05/03 11:54:17;;;;;;;6.28;2.30;;;17.30;66.00;;;;;;5047244;28;20398;-63
2023/05/03 11:56:42;;;;;;;5.35;2.72;;;17.20;65.10;;;;;;5043061;28;20025;-64
2023/05/03 11:59:08;;;;;;;4.97;2.15;;;16.90;66.40;;;;;;5051113;22;20053;-68
2023/05/03 12:01:33;;;;;;;6.05;2.15;;;17.00;69.90;;;;;;5002229;28;20494;-68
2023/05/03 12:04:00;;;;;;;5.13;1.75;;;17.10;68.20;;;;;;5013099;28;20121;-67
2023/05/03 12:06:32;;;;;;;3.38;1.70;;;17.30;66.50;;;;;;4997064;28;20050;-67
2023/05/03 12:08:59;;;;;;;4.00;2.28;;;17.50;68.50;;;;;;5010620;28;20822;-68
2023/05/03 12:11:25;;;;;;;6.40;1.98;;;17.60;67.80;;;;;;5005582;28;20048;-68
2023/05/03 12:13:58;;;;;;;5.68;2.00;;;17.70;66.50;;;;;;5002289;28;20492;-68
2023/05/03 12:16:24;;;;;;;2.00;1.80;;;17.60;64.80;;;;;;5006870;28;20048;-68
2023/05/03 12:18:52;;;;;;;6.35;2.05;;;17.40;63.10;;;;;;5004075;28;20069;-68
2023/05/03 12:21:23;;;;;;;4.40;2.28;;;17.20;66.00;;;;;;5003174;28;20018;-68
2023/05/03 12:23:50;;;;;;;5.15;2.00;;;17.10;65.70;;;;;;5009484;28;20041;-69
2023/05/03 12:26:18;;;;;;;7.32;2.50;;;17.10;63.70;;;;;;5004751;28;20057;-68
2023/05/03 12:28:46;;;;;;;6.30;1.73;;;17.10;65.10;;;;;;5002693;28;20606;-68
2023/05/03 12:31:11;;;;;;;4.65;1.75;;;17.10;64.50;;;;;;4996213;28;20030;-68
2023/05/03 12:33:37;;;;;;;5.97;2.00;;;17.10;66.20;;;;;;4999668;28;20018;-66
2023/05/03 12:36:03;;;;;;;5.93;1.92;;;17.20;66.70;;;;;;5005309;28;20032;-67
2023/05/03 12:38:29;;;;;;;7.90;1.90;;;17.30;68.70;;;;;;5005694;28;20033;-68
2023/05/03 12:40:56;;;;;;;6.97;2.00;;;17.40;66.40;;;;;;5000696;28;20026;-67
2023/05/03 12:43:22;;;;;;;5.43;2.53;;;17.50;67.50;;;;;;5007738;28;20038;-68
2023/05/03 12:45:47;;;;;;;5.22;2.15;;;17.30;64.10;;;;;;5008443;28;20550;-68
2023/05/03 12:48:13;;;;;;;4.90;2.20;;;17.30;65.10;;;;;;5008024;28;21683;-68
2023/05/03 12:50:38;;;;;;;5.88;1.80;;;17.20;65.40;;;;;;5009243;28;20026;-69